PWSweather.com
Personal Weather Stations
Station Observations

PoschiavoCH

Lat: 46.31962499999999, Lon: 10.066551000000004

Elevation: 3517

Station Type: WH 1080

http://www.meteoposchiavo.com

High Low Average
Temperature 63.0°F17.2°C 35.0°F1.7°C 48.8°F9.3°C
Dew Point 33.0°F0.6°C 8.7°F-12.9°C 23.6°F-4.7°C
Winds 5.8 mph 9.3 kmh Calm Calm 1.0 mph ESE1.6 kmh ESE
Wind Gusts 8.1 mph13.0 kmh -- 2.0 mph3.2 kmh
Humidity 77% 14% 42%
Pressure 26.74 in905.5 mb 26.55 in899.1 mb -
Precipitation 0.00 in0.0 mm - -
Hour Temp Dew Point Humidity Winds Wind Gusts Pressure Precip Precip Rate Daily Precip Total
12:00 AM 44.0°F6.7°C 31.8°F-0.1°C 62% Calm Calm 1.2 mph1.9 kmh 26.73 in905.2 mb - 0.00 in0.0 mm 0.00 in0.0 mm
12:10 AM 43.0°F6.1°C 30.5°F-0.8°C 61% Calm Calm -- 26.74 in905.5 mb - 0.00 in0.0 mm 0.00 in0.0 mm
12:15 AM 44.0°F6.7°C 31.0°F-0.6°C 60% Calm Calm -- 26.73 in905.2 mb - 0.00 in0.0 mm 0.00 in0.0 mm
12:20 AM 44.0°F6.7°C 33.0°F0.6°C 65% Calm Calm -- 26.73 in905.2 mb - 0.00 in0.0 mm 0.00 in0.0 mm
12:25 AM 43.0°F6.1°C 30.9°F-0.6°C 62% Calm Calm -- 26.73 in905.2 mb - 0.00 in0.0 mm 0.00 in0.0 mm
12:30 AM 43.0°F6.1°C 30.5°F-0.8°C 61% Calm Calm 1.2 mph1.9 kmh 26.73 in905.2 mb - 0.00 in0.0 mm 0.00 in0.0 mm
12:35 AM 43.0°F6.1°C 30.5°F-0.8°C 61% Calm Calm 1.2 mph1.9 kmh 26.73 in905.2 mb - 0.00 in0.0 mm 0.00 in0.0 mm
12:40 AM 44.0°F6.7°C 31.0°F-0.6°C 60% Calm Calm -- 26.73 in905.2 mb - 0.00 in0.0 mm 0.00 in0.0 mm
12:45 AM 43.0°F6.1°C 30.1°F-1.1°C 60% Calm Calm 1.2 mph1.9 kmh 26.73 in905.2 mb - 0.00 in0.0 mm 0.00 in0.0 mm
12:50 AM 43.0°F6.1°C 30.9°F-0.6°C 62% Calm Calm -- 26.73 in905.2 mb - 0.00 in0.0 mm 0.00 in0.0 mm
12:55 AM 43.0°F6.1°C 30.5°F-0.8°C 61% Calm Calm -- 26.73 in905.2 mb - 0.00 in0.0 mm 0.00 in0.0 mm
01:00 AM 43.0°F6.1°C 30.9°F-0.6°C 62% 1.2 mph NE1.9 kmh NE 1.2 mph1.9 kmh 26.72 in904.8 mb - 0.00 in0.0 mm 0.00 in0.0 mm
01:10 AM 43.0°F6.1°C 30.9°F-0.6°C 62% Calm Calm -- 26.72 in904.8 mb - 0.00 in0.0 mm 0.00 in0.0 mm
01:15 AM 42.0°F5.6°C 30.7°F-0.7°C 64% Calm Calm -- 26.72 in904.8 mb - 0.00 in0.0 mm 0.00 in0.0 mm
01:20 AM 42.0°F5.6°C 30.3°F-0.9°C 63% Calm Calm 1.2 mph1.9 kmh 26.72 in904.8 mb - 0.00 in0.0 mm 0.00 in0.0 mm
01:25 AM 42.0°F5.6°C 29.9°F-1.2°C 62% 1.2 mph NE1.9 kmh NE 1.2 mph1.9 kmh 26.73 in905.2 mb - 0.00 in0.0 mm 0.00 in0.0 mm
01:30 AM 43.0°F6.1°C 30.5°F-0.8°C 61% Calm Calm 1.2 mph1.9 kmh 26.72 in904.8 mb - 0.00 in0.0 mm 0.00 in0.0 mm
01:35 AM 42.0°F5.6°C 30.3°F-0.9°C 63% Calm Calm -- 26.72 in904.8 mb - 0.00 in0.0 mm 0.00 in0.0 mm
01:40 AM 41.6°F5.3°C 30.4°F-0.9°C 64% Calm Calm -- 26.72 in904.8 mb - 0.00 in0.0 mm 0.00 in0.0 mm
01:45 AM 41.0°F5.0°C 30.1°F-1.1°C 65% Calm Calm -- 26.72 in904.8 mb - 0.00 in0.0 mm 0.00 in0.0 mm
01:50 AM 41.0°F5.0°C 30.9°F-0.6°C 67% Calm Calm -- 26.72 in904.8 mb - 0.00 in0.0 mm 0.00 in0.0 mm
01:55 AM 42.0°F5.6°C 30.7°F-0.7°C 64% Calm Calm -- 26.72 in904.8 mb - 0.00 in0.0 mm 0.00 in0.0 mm
02:00 AM 42.0°F5.6°C 32.2°F0.1°C 68% Calm Calm -- 26.71 in904.5 mb - 0.00 in0.0 mm 0.00 in0.0 mm
02:10 AM 41.0°F5.0°C 30.9°F-0.6°C 67% Calm Calm -- 26.71 in904.5 mb - 0.00 in0.0 mm 0.00 in0.0 mm
02:15 AM 41.0°F5.0°C 30.9°F-0.6°C 67% Calm Calm -- 26.71 in904.5 mb - 0.00 in0.0 mm 0.00 in0.0 mm
02:20 AM 41.0°F5.0°C 31.6°F-0.2°C 69% Calm Calm -- 26.71 in904.5 mb - 0.00 in0.0 mm 0.00 in0.0 mm
02:25 AM 40.0°F4.4°C 31.0°F-0.6°C 70% Calm Calm -- 26.72 in904.8 mb - 0.00 in0.0 mm 0.00 in0.0 mm
02:30 AM 41.0°F5.0°C 31.2°F-0.4°C 68% Calm Calm -- 26.72 in904.8 mb - 0.00 in0.0 mm 0.00 in0.0 mm
02:35 AM 40.0°F4.4°C 29.2°F-1.6°C 65% 1.2 mph NE1.9 kmh NE 1.2 mph1.9 kmh 26.72 in904.8 mb - 0.00 in0.0 mm 0.00 in0.0 mm
02:40 AM 42.0°F5.6°C 30.7°F-0.7°C 64% 1.2 mph NE1.9 kmh NE 1.2 mph1.9 kmh 26.71 in904.5 mb - 0.00 in0.0 mm 0.00 in0.0 mm
02:45 AM 41.4°F5.2°C 30.9°F-0.6°C 66% Calm Calm 1.2 mph1.9 kmh 26.72 in904.8 mb - 0.00 in0.0 mm 0.00 in0.0 mm
02:50 AM 41.0°F5.0°C 30.9°F-0.6°C 67% Calm Calm -- 26.72 in904.8 mb - 0.00 in0.0 mm 0.00 in0.0 mm
02:55 AM 40.0°F4.4°C 30.3°F-0.9°C 68% Calm Calm 1.2 mph1.9 kmh 26.71 in904.5 mb - 0.00 in0.0 mm 0.00 in0.0 mm
03:00 AM 40.0°F4.4°C 30.6°F-0.8°C 69% Calm Calm -- 26.71 in904.5 mb - 0.00 in0.0 mm 0.00 in0.0 mm
03:10 AM 38.0°F3.3°C 29.1°F-1.6°C 70% Calm Calm -- 26.71 in904.5 mb - 0.00 in0.0 mm 0.00 in0.0 mm
03:15 AM 39.0°F3.9°C 29.3°F-1.5°C 68% Calm Calm 1.2 mph1.9 kmh 26.71 in904.5 mb - 0.00 in0.0 mm 0.00 in0.0 mm
03:20 AM 39.0°F3.9°C 29.3°F-1.5°C 68% Calm Calm 1.2 mph1.9 kmh 26.71 in904.5 mb - 0.00 in0.0 mm 0.00 in0.0 mm
03:25 AM 39.0°F3.9°C 29.3°F-1.5°C 68% Calm Calm -- 26.70 in904.2 mb - 0.00 in0.0 mm 0.00 in0.0 mm
03:30 AM 38.0°F3.3°C 29.1°F-1.6°C 70% Calm Calm -- 26.71 in904.5 mb - 0.00 in0.0 mm 0.00 in0.0 mm
03:35 AM 38.0°F3.3°C 29.4°F-1.4°C 71% Calm Calm -- 26.70 in904.2 mb - 0.00 in0.0 mm 0.00 in0.0 mm
03:40 AM 39.0°F3.9°C 29.0°F-1.7°C 67% Calm Calm 1.2 mph1.9 kmh 26.70 in904.2 mb - 0.00 in0.0 mm 0.00 in0.0 mm
03:45 AM 38.0°F3.3°C 28.7°F-1.8°C 69% Calm Calm 1.2 mph1.9 kmh 26.70 in904.2 mb - 0.00 in0.0 mm 0.00 in0.0 mm
03:50 AM 38.0°F3.3°C 29.4°F-1.4°C 71% Calm Calm 1.2 mph1.9 kmh 26.70 in904.2 mb - 0.00 in0.0 mm 0.00 in0.0 mm
03:55 AM 38.9°F3.8°C 30.7°F-0.7°C 72% Calm Calm -- 26.70 in904.2 mb - 0.00 in0.0 mm 0.00 in0.0 mm
04:00 AM 38.0°F3.3°C 29.1°F-1.6°C 70% Calm Calm -- 26.70 in904.2 mb - 0.00 in0.0 mm 0.00 in0.0 mm
04:10 AM 38.0°F3.3°C 29.1°F-1.6°C 70% Calm Calm -- 26.70 in904.2 mb - 0.00 in0.0 mm 0.00 in0.0 mm
04:15 AM 38.0°F3.3°C 28.4°F-2.0°C 68% Calm Calm -- 26.70 in904.2 mb - 0.00 in0.0 mm 0.00 in0.0 mm
04:20 AM 37.0°F2.8°C 30.1°F-1.1°C 76% Calm Calm -- 26.70 in904.2 mb - 0.00 in0.0 mm 0.00 in0.0 mm
04:25 AM 37.0°F2.8°C 30.1°F-1.1°C 76% Calm Calm -- 26.70 in904.2 mb - 0.00 in0.0 mm 0.00 in0.0 mm
04:30 AM 37.0°F2.8°C 29.8°F-1.2°C 75% Calm Calm -- 26.70 in904.2 mb - 0.00 in0.0 mm 0.00 in0.0 mm
04:35 AM 37.0°F2.8°C 28.5°F-1.9°C 71% Calm Calm 1.2 mph1.9 kmh 26.69 in903.8 mb - 0.00 in0.0 mm 0.00 in0.0 mm
04:40 AM 38.0°F3.3°C 28.4°F-2.0°C 68% 1.2 mph NE1.9 kmh NE 1.2 mph1.9 kmh 26.69 in903.8 mb - 0.00 in0.0 mm 0.00 in0.0 mm
04:45 AM 38.0°F3.3°C 29.4°F-1.4°C 71% Calm Calm -- 26.69 in903.8 mb - 0.00 in0.0 mm 0.00 in0.0 mm
04:50 AM 37.0°F2.8°C 28.1°F-2.2°C 70% Calm Calm 1.2 mph1.9 kmh 26.69 in903.8 mb - 0.00 in0.0 mm 0.00 in0.0 mm
04:55 AM 37.0°F2.8°C 28.1°F-2.2°C 70% Calm Calm 1.2 mph1.9 kmh 26.69 in903.8 mb - 0.00 in0.0 mm 0.00 in0.0 mm
05:00 AM 37.0°F2.8°C 29.1°F-1.6°C 73% Calm Calm -- 26.69 in903.8 mb - 0.00 in0.0 mm 0.00 in0.0 mm
05:10 AM 38.0°F3.3°C 28.0°F-2.2°C 67% 1.2 mph NE1.9 kmh NE 1.2 mph1.9 kmh 26.69 in903.8 mb - 0.00 in0.0 mm 0.00 in0.0 mm
05:15 AM 38.0°F3.3°C 29.4°F-1.4°C 71% Calm Calm -- 26.69 in903.8 mb - 0.00 in0.0 mm 0.00 in0.0 mm
05:20 AM 37.3°F2.9°C 29.1°F-1.6°C 72% Calm Calm -- 26.69 in903.8 mb - 0.00 in0.0 mm 0.00 in0.0 mm
05:25 AM 37.0°F2.8°C 29.1°F-1.6°C 73% Calm Calm -- 26.69 in903.8 mb - 0.00 in0.0 mm 0.00 in0.0 mm
05:30 AM 37.0°F2.8°C 28.8°F-1.8°C 72% Calm Calm -- 26.68 in903.5 mb - 0.00 in0.0 mm 0.00 in0.0 mm
05:35 AM 38.0°F3.3°C 28.0°F-2.2°C 67% Calm Calm 1.2 mph1.9 kmh 26.68 in903.5 mb - 0.00 in0.0 mm 0.00 in0.0 mm
05:40 AM 37.0°F2.8°C 28.1°F-2.2°C 70% Calm Calm 1.2 mph1.9 kmh 26.68 in903.5 mb - 0.00 in0.0 mm 0.00 in0.0 mm
05:45 AM 38.0°F3.3°C 27.3°F-2.6°C 65% Calm Calm -- 26.68 in903.5 mb - 0.00 in0.0 mm 0.00 in0.0 mm
05:50 AM 38.0°F3.3°C 27.6°F-2.4°C 66% Calm Calm -- 26.68 in903.5 mb - 0.00 in0.0 mm 0.00 in0.0 mm
05:55 AM 38.0°F3.3°C 28.4°F-2.0°C 68% Calm Calm -- 26.68 in903.5 mb - 0.00 in0.0 mm 0.00 in0.0 mm
06:00 AM 37.0°F2.8°C 28.8°F-1.8°C 72% Calm Calm -- 26.69 in903.8 mb - 0.00 in0.0 mm 0.00 in0.0 mm
06:10 AM 38.0°F3.3°C 29.8°F-1.2°C 72% Calm Calm -- 26.67 in903.2 mb - 0.00 in0.0 mm 0.00 in0.0 mm
06:15 AM 37.0°F2.8°C 29.8°F-1.2°C 75% Calm Calm -- 26.67 in903.2 mb - 0.00 in0.0 mm 0.00 in0.0 mm
06:20 AM 36.8°F2.7°C 29.3°F-1.5°C 74% Calm Calm -- 26.67 in903.2 mb - 0.00 in0.0 mm 0.00 in0.0 mm
06:25 AM 36.0°F2.2°C 27.5°F-2.5°C 71% Calm Calm -- 26.67 in903.2 mb - 0.00 in0.0 mm 0.00 in0.0 mm
06:30 AM 36.0°F2.2°C 28.8°F-1.8°C 75% Calm Calm -- 26.67 in903.2 mb - 0.00 in0.0 mm 0.00 in0.0 mm
06:35 AM 36.0°F2.2°C 29.2°F-1.6°C 76% Calm Calm -- 26.67 in903.2 mb - 0.00 in0.0 mm 0.00 in0.0 mm
06:40 AM 35.0°F1.7°C 27.2°F-2.7°C 73% Calm Calm 1.2 mph1.9 kmh 26.67 in903.2 mb - 0.00 in0.0 mm 0.00 in0.0 mm
06:45 AM 35.0°F1.7°C 26.5°F-3.1°C 71% Calm Calm 1.2 mph1.9 kmh 26.67 in903.2 mb - 0.00 in0.0 mm 0.00 in0.0 mm
06:50 AM 37.0°F2.8°C 28.1°F-2.2°C 70% Calm Calm -- 26.67 in903.2 mb - 0.00 in0.0 mm 0.00 in0.0 mm
06:55 AM 36.0°F2.2°C 27.5°F-2.5°C 71% Calm Calm -- 26.67 in903.2 mb - 0.00 in0.0 mm 0.00 in0.0 mm
07:00 AM 36.0°F2.2°C 27.8°F-2.3°C 72% Calm Calm -- 26.67 in903.2 mb - 0.00 in0.0 mm 0.00 in0.0 mm
07:10 AM 36.0°F2.2°C 26.8°F-2.9°C 69% Calm Calm -- 26.66 in902.8 mb - 0.00 in0.0 mm 0.00 in0.0 mm
07:15 AM 36.0°F2.2°C 27.8°F-2.3°C 72% Calm Calm -- 26.66 in902.8 mb - 0.00 in0.0 mm 0.00 in0.0 mm
07:20 AM 36.0°F2.2°C 29.5°F-1.4°C 77% Calm Calm -- 26.66 in902.8 mb - 0.00 in0.0 mm 0.00 in0.0 mm
07:25 AM 36.0°F2.2°C 27.5°F-2.5°C 71% Calm Calm -- 26.66 in902.8 mb - 0.00 in0.0 mm 0.00 in0.0 mm
07:30 AM 37.0°F2.8°C 28.1°F-2.2°C 70% Calm Calm -- 26.66 in902.8 mb - 0.00 in0.0 mm 0.00 in0.0 mm
07:35 AM 38.0°F3.3°C 28.0°F-2.2°C 67% Calm Calm 1.2 mph1.9 kmh 26.65 in902.5 mb - 0.00 in0.0 mm 0.00 in0.0 mm
07:40 AM 39.0°F3.9°C 28.2°F-2.1°C 65% Calm Calm 1.2 mph1.9 kmh 26.66 in902.8 mb - 0.00 in0.0 mm 0.00 in0.0 mm
07:45 AM 39.1°F3.9°C 28.3°F-2.1°C 65% Calm Calm -- 26.66 in902.8 mb - 0.00 in0.0 mm 0.00 in0.0 mm
07:50 AM 40.0°F4.4°C 28.8°F-1.8°C 64% Calm Calm -- 26.66 in902.8 mb - 0.00 in0.0 mm 0.00 in0.0 mm
07:55 AM 45.0°F7.2°C 28.9°F-1.7°C 53% Calm Calm -- 26.65 in902.5 mb - 0.00 in0.0 mm 0.00 in0.0 mm
08:00 AM 48.0°F8.9°C 26.5°F-3.1°C 43% 1.2 mph SE1.9 kmh SE 1.2 mph1.9 kmh 26.64 in902.1 mb - 0.00 in0.0 mm 0.00 in0.0 mm
08:10 AM 52.0°F11.1°C 28.4°F-2.0°C 40% Calm Calm -- 26.64 in902.1 mb - 0.00 in0.0 mm 0.00 in0.0 mm
08:15 AM 48.0°F8.9°C 28.7°F-1.8°C 47% Calm Calm -- 26.63 in901.8 mb - 0.00 in0.0 mm 0.00 in0.0 mm
08:20 AM 48.0°F8.9°C 27.1°F-2.7°C 44% Calm Calm -- 26.63 in901.8 mb - 0.00 in0.0 mm 0.00 in0.0 mm
08:25 AM 51.0°F10.6°C 21.4°F-5.9°C 31% 1.2 mph NNE1.9 kmh NNE 1.2 mph1.9 kmh 26.62 in901.5 mb - 0.00 in0.0 mm 0.00 in0.0 mm
08:30 AM 51.7°F10.9°C 15.0°F-9.4°C 23% 1.2 mph NE1.9 kmh NE 1.2 mph1.9 kmh 26.61 in901.1 mb - 0.00 in0.0 mm 0.00 in0.0 mm
08:35 AM 52.0°F11.1°C 15.3°F-9.3°C 23% 1.2 mph NE1.9 kmh NE 1.2 mph1.9 kmh 26.61 in901.1 mb - 0.00 in0.0 mm 0.00 in0.0 mm
08:40 AM 53.0°F11.7°C 10.6°F-11.9°C 18% 1.2 mph NNE1.9 kmh NNE 1.2 mph1.9 kmh 26.61 in901.1 mb - 0.00 in0.0 mm 0.00 in0.0 mm
08:45 AM 53.0°F11.7°C 10.6°F-11.9°C 18% 3.5 mph SSW5.6 kmh SSW 3.5 mph5.6 kmh 26.59 in900.4 mb - 0.00 in0.0 mm 0.00 in0.0 mm
08:50 AM 54.0°F12.2°C 11.4°F-11.4°C 18% 2.3 mph WNW3.7 kmh WNW 3.5 mph5.6 kmh 26.59 in900.4 mb - 0.00 in0.0 mm 0.00 in0.0 mm
08:55 AM 54.0°F12.2°C 11.4°F-11.4°C 18% 1.2 mph WNW1.9 kmh WNW 3.5 mph5.6 kmh 26.59 in900.4 mb - 0.00 in0.0 mm 0.00 in0.0 mm
09:00 AM 53.0°F11.7°C 10.6°F-11.9°C 18% 1.2 mph W1.9 kmh W 1.2 mph1.9 kmh 26.59 in900.4 mb - 0.00 in0.0 mm 0.00 in0.0 mm
09:10 AM 54.0°F12.2°C 8.7°F-12.9°C 16% 1.2 mph W1.9 kmh W 1.2 mph1.9 kmh 26.59 in900.4 mb - 0.00 in0.0 mm 0.00 in0.0 mm
09:15 AM 54.0°F12.2°C 17.0°F-8.3°C 23% 2.3 mph E3.7 kmh E 2.3 mph3.7 kmh 26.58 in900.1 mb - 0.00 in0.0 mm 0.00 in0.0 mm
09:20 AM 54.0°F12.2°C 17.0°F-8.3°C 23% 2.3 mph E3.7 kmh E 2.3 mph3.7 kmh 26.58 in900.1 mb - 0.00 in0.0 mm 0.00 in0.0 mm
09:25 AM 55.0°F12.8°C 13.4°F-10.3°C 19% 1.2 mph S1.9 kmh S 2.3 mph3.7 kmh 26.58 in900.1 mb - 0.00 in0.0 mm 0.00 in0.0 mm
09:30 AM 55.0°F12.8°C 10.9°F-11.7°C 17% 1.2 mph SSE1.9 kmh SSE 2.3 mph3.7 kmh 26.58 in900.1 mb - 0.00 in0.0 mm 0.00 in0.0 mm
09:35 AM 58.0°F14.4°C 13.4°F-10.3°C 17% 1.2 mph SW1.9 kmh SW 1.2 mph1.9 kmh 26.57 in899.8 mb - 0.00 in0.0 mm 0.00 in0.0 mm
09:40 AM 59.8°F15.4°C 14.8°F-9.6°C 17% 2.3 mph SW3.7 kmh SW 3.5 mph5.6 kmh 26.57 in899.8 mb - 0.00 in0.0 mm 0.00 in0.0 mm
09:45 AM 60.0°F15.6°C 15.0°F-9.4°C 17% 3.5 mph SW5.6 kmh SW 3.5 mph5.6 kmh 26.57 in899.8 mb - 0.00 in0.0 mm 0.00 in0.0 mm
09:50 AM 61.0°F16.1°C 14.4°F-9.8°C 16% Calm Calm 1.2 mph1.9 kmh 26.57 in899.8 mb - 0.00 in0.0 mm 0.00 in0.0 mm
09:55 AM 61.0°F16.1°C 11.4°F-11.4°C 14% 2.3 mph WSW3.7 kmh WSW 3.5 mph5.6 kmh 26.57 in899.8 mb - 0.00 in0.0 mm 0.00 in0.0 mm
10:00 AM 62.0°F16.7°C 16.6°F-8.6°C 17% 2.3 mph W3.7 kmh W 2.3 mph3.7 kmh 26.57 in899.8 mb - 0.00 in0.0 mm 0.00 in0.0 mm
10:10 AM 62.0°F16.7°C 15.2°F-9.3°C 16% 3.5 mph WSW5.6 kmh WSW 5.8 mph9.3 kmh 26.57 in899.8 mb - 0.00 in0.0 mm 0.00 in0.0 mm
10:15 AM 62.0°F16.7°C 16.6°F-8.6°C 17% 2.3 mph NE3.7 kmh NE 2.3 mph3.7 kmh 26.57 in899.8 mb - 0.00 in0.0 mm 0.00 in0.0 mm
10:20 AM 62.0°F16.7°C 15.2°F-9.3°C 16% 2.3 mph S3.7 kmh S 3.5 mph5.6 kmh 26.58 in900.1 mb - 0.00 in0.0 mm 0.00 in0.0 mm
10:25 AM 62.0°F16.7°C 13.8°F-10.1°C 15% 2.3 mph S3.7 kmh S 3.5 mph5.6 kmh 26.57 in899.8 mb - 0.00 in0.0 mm 0.00 in0.0 mm
10:30 AM 62.0°F16.7°C 15.2°F-9.3°C 16% 3.5 mph SSE5.6 kmh SSE 5.8 mph9.3 kmh 26.57 in899.8 mb - 0.00 in0.0 mm 0.00 in0.0 mm
10:35 AM 62.0°F16.7°C 16.6°F-8.6°C 17% 3.5 mph SSE5.6 kmh SSE 5.8 mph9.3 kmh 26.57 in899.8 mb - 0.00 in0.0 mm 0.00 in0.0 mm
10:40 AM 62.0°F16.7°C 16.6°F-8.6°C 17% 2.3 mph SE3.7 kmh SE 2.3 mph3.7 kmh 26.57 in899.8 mb - 0.00 in0.0 mm 0.00 in0.0 mm
10:45 AM 62.0°F16.7°C 16.6°F-8.6°C 17% 2.3 mph SE3.7 kmh SE 3.5 mph5.6 kmh 26.57 in899.8 mb - 0.00 in0.0 mm 0.00 in0.0 mm
10:50 AM 61.0°F16.1°C 14.4°F-9.8°C 16% 2.3 mph N3.7 kmh N 3.5 mph5.6 kmh 26.58 in900.1 mb - 0.00 in0.0 mm 0.00 in0.0 mm
10:55 AM 61.0°F16.1°C 14.4°F-9.8°C 16% 1.2 mph NNE1.9 kmh NNE 3.5 mph5.6 kmh 26.58 in900.1 mb - 0.00 in0.0 mm 0.00 in0.0 mm
11:00 AM 61.0°F16.1°C 12.9°F-10.6°C 15% 1.2 mph S1.9 kmh S 3.5 mph5.6 kmh 26.57 in899.8 mb - 0.00 in0.0 mm 0.00 in0.0 mm
11:10 AM 61.0°F16.1°C 17.1°F-8.3°C 18% 2.3 mph NNW3.7 kmh NNW 2.3 mph3.7 kmh 26.58 in900.1 mb - 0.00 in0.0 mm 0.00 in0.0 mm
11:15 AM 61.0°F16.1°C 19.6°F-6.9°C 20% 3.5 mph SW5.6 kmh SW 5.8 mph9.3 kmh 26.59 in900.4 mb - 0.00 in0.0 mm 0.00 in0.0 mm
11:20 AM 61.0°F16.1°C 19.6°F-6.9°C 20% 2.3 mph SW3.7 kmh SW 5.8 mph9.3 kmh 26.59 in900.4 mb - 0.00 in0.0 mm 0.00 in0.0 mm
11:25 AM 61.0°F16.1°C 20.7°F-6.3°C 21% 1.2 mph S1.9 kmh S 3.5 mph5.6 kmh 26.58 in900.1 mb - 0.00 in0.0 mm 0.00 in0.0 mm
11:30 AM 60.0°F15.6°C 13.6°F-10.2°C 16% Calm Calm -- 26.58 in900.1 mb - 0.00 in0.0 mm 0.00 in0.0 mm
11:35 AM 62.0°F16.7°C 16.6°F-8.6°C 17% 2.3 mph NW3.7 kmh NW 2.3 mph3.7 kmh 26.58 in900.1 mb - 0.00 in0.0 mm 0.00 in0.0 mm
11:40 AM 62.0°F16.7°C 22.7°F-5.2°C 22% 2.3 mph ESE3.7 kmh ESE 2.3 mph3.7 kmh 26.59 in900.4 mb - 0.00 in0.0 mm 0.00 in0.0 mm
11:45 AM 62.0°F16.7°C 23.7°F-4.6°C 23% 2.3 mph S3.7 kmh S 3.5 mph5.6 kmh 26.58 in900.1 mb - 0.00 in0.0 mm 0.00 in0.0 mm
11:50 AM 62.0°F16.7°C 23.7°F-4.6°C 23% 2.3 mph S3.7 kmh S 3.5 mph5.6 kmh 26.58 in900.1 mb - 0.00 in0.0 mm 0.00 in0.0 mm
11:55 AM 62.0°F16.7°C 23.7°F-4.6°C 23% 2.3 mph S3.7 kmh S 3.5 mph5.6 kmh 26.58 in900.1 mb - 0.00 in0.0 mm 0.00 in0.0 mm
12:00 PM 62.0°F16.7°C 19.2°F-7.1°C 19% 2.3 mph W3.7 kmh W 2.3 mph3.7 kmh 26.58 in900.1 mb - 0.00 in0.0 mm 0.00 in0.0 mm
12:10 PM 62.0°F16.7°C 21.6°F-5.8°C 21% 1.2 mph S1.9 kmh S 2.3 mph3.7 kmh 26.59 in900.4 mb - 0.00 in0.0 mm 0.00 in0.0 mm
12:15 PM 62.0°F16.7°C 20.4°F-6.4°C 20% 2.3 mph S3.7 kmh S 3.5 mph5.6 kmh 26.59 in900.4 mb - 0.00 in0.0 mm 0.00 in0.0 mm
12:20 PM 62.0°F16.7°C 18.0°F-7.8°C 18% 3.5 mph S5.6 kmh S 3.5 mph5.6 kmh 26.58 in900.1 mb - 0.00 in0.0 mm 0.00 in0.0 mm
12:25 PM 62.0°F16.7°C 20.4°F-6.4°C 20% 3.5 mph E5.6 kmh E 3.5 mph5.6 kmh 26.59 in900.4 mb - 0.00 in0.0 mm 0.00 in0.0 mm
12:30 PM 63.0°F17.2°C 23.5°F-4.7°C 22% 2.3 mph S3.7 kmh S 2.3 mph3.7 kmh 26.58 in900.1 mb - 0.00 in0.0 mm 0.00 in0.0 mm
12:35 PM 63.0°F17.2°C 20.0°F-6.7°C 19% 2.3 mph SW3.7 kmh SW 3.5 mph5.6 kmh 26.58 in900.1 mb - 0.00 in0.0 mm 0.00 in0.0 mm
12:40 PM 63.0°F17.2°C 21.2°F-6.0°C 20% 2.3 mph ENE3.7 kmh ENE 3.5 mph5.6 kmh 26.57 in899.8 mb - 0.00 in0.0 mm 0.00 in0.0 mm
12:45 PM 63.0°F17.2°C 22.4°F-5.3°C 21% 2.3 mph NE3.7 kmh NE 2.3 mph3.7 kmh 26.57 in899.8 mb - 0.00 in0.0 mm 0.00 in0.0 mm
12:50 PM 63.0°F17.2°C 23.5°F-4.7°C 22% 3.5 mph SE5.6 kmh SE 3.5 mph5.6 kmh 26.57 in899.8 mb - 0.00 in0.0 mm 0.00 in0.0 mm
12:55 PM 61.0°F16.1°C 22.9°F-5.1°C 23% 2.3 mph E3.7 kmh E 3.5 mph5.6 kmh 26.58 in900.1 mb - 0.00 in0.0 mm 0.00 in0.0 mm
01:00 PM 60.0°F15.6°C 19.9°F-6.7°C 21% 3.5 mph SW5.6 kmh SW 5.8 mph9.3 kmh 26.58 in900.1 mb - 0.00 in0.0 mm 0.00 in0.0 mm
01:10 PM 62.0°F16.7°C 22.7°F-5.2°C 22% 2.3 mph WSW3.7 kmh WSW 3.5 mph5.6 kmh 26.57 in899.8 mb - 0.00 in0.0 mm 0.00 in0.0 mm
01:15 PM 61.0°F16.1°C 23.9°F-4.5°C 24% 2.3 mph ENE3.7 kmh ENE 3.5 mph5.6 kmh 26.56 in899.4 mb - 0.00 in0.0 mm 0.00 in0.0 mm
01:20 PM 62.0°F16.7°C 24.8°F-4.0°C 24% 3.5 mph SW5.6 kmh SW 5.8 mph9.3 kmh 26.57 in899.8 mb - 0.00 in0.0 mm 0.00 in0.0 mm
01:25 PM 61.0°F16.1°C 21.8°F-5.7°C 22% 2.3 mph ESE3.7 kmh ESE 3.5 mph5.6 kmh 26.57 in899.8 mb - 0.00 in0.0 mm 0.00 in0.0 mm
01:30 PM 60.1°F15.6°C 21.1°F-6.1°C 22% 3.5 mph SE5.6 kmh SE 5.8 mph9.3 kmh 26.57 in899.8 mb - 0.00 in0.0 mm 0.00 in0.0 mm
01:35 PM 60.0°F15.6°C 21.0°F-6.1°C 22% 3.5 mph SE5.6 kmh SE 5.8 mph9.3 kmh 26.57 in899.8 mb - 0.00 in0.0 mm 0.00 in0.0 mm
01:40 PM 61.0°F16.1°C 24.9°F-3.9°C 25% 2.3 mph SSE3.7 kmh SSE 3.5 mph5.6 kmh 26.57 in899.8 mb - 0.00 in0.0 mm 0.00 in0.0 mm
01:45 PM 62.0°F16.7°C 24.8°F-4.0°C 24% 3.5 mph SSE5.6 kmh SSE 5.8 mph9.3 kmh 26.57 in899.8 mb - 0.00 in0.0 mm 0.00 in0.0 mm
01:50 PM 62.0°F16.7°C 20.4°F-6.4°C 20% 3.5 mph ENE5.6 kmh ENE 3.5 mph5.6 kmh 26.56 in899.4 mb - 0.00 in0.0 mm 0.00 in0.0 mm
01:55 PM 62.0°F16.7°C 25.7°F-3.5°C 25% 3.5 mph SSE5.6 kmh SSE 3.5 mph5.6 kmh 26.57 in899.8 mb - 0.00 in0.0 mm 0.00 in0.0 mm
02:00 PM 62.0°F16.7°C 24.8°F-4.0°C 24% 3.5 mph SSE5.6 kmh SSE 5.8 mph9.3 kmh 26.57 in899.8 mb - 0.00 in0.0 mm 0.00 in0.0 mm
02:10 PM 63.0°F17.2°C 25.6°F-3.6°C 24% 2.3 mph S3.7 kmh S 2.3 mph3.7 kmh 26.57 in899.8 mb - 0.00 in0.0 mm 0.00 in0.0 mm
02:15 PM 61.0°F16.1°C 23.9°F-4.5°C 24% 1.2 mph SSE1.9 kmh SSE 2.3 mph3.7 kmh 26.57 in899.8 mb - 0.00 in0.0 mm 0.00 in0.0 mm
02:20 PM 62.0°F16.7°C 24.8°F-4.0°C 24% 2.3 mph SW3.7 kmh SW 2.3 mph3.7 kmh 26.57 in899.8 mb - 0.00 in0.0 mm 0.00 in0.0 mm
02:25 PM 62.6°F17.0°C 25.3°F-3.7°C 24% 1.2 mph S1.9 kmh S 2.3 mph3.7 kmh 26.56 in899.4 mb - 0.00 in0.0 mm 0.00 in0.0 mm
02:30 PM 63.0°F17.2°C 25.6°F-3.6°C 24% 1.2 mph E1.9 kmh E 1.2 mph1.9 kmh 26.56 in899.4 mb - 0.00 in0.0 mm 0.00 in0.0 mm
02:35 PM 62.0°F16.7°C 23.7°F-4.6°C 23% 3.5 mph SE5.6 kmh SE 5.8 mph9.3 kmh 26.57 in899.8 mb - 0.00 in0.0 mm 0.00 in0.0 mm
02:40 PM 62.0°F16.7°C 24.8°F-4.0°C 24% 2.3 mph SE3.7 kmh SE 3.5 mph5.6 kmh 26.57 in899.8 mb - 0.00 in0.0 mm 0.00 in0.0 mm
02:45 PM 61.0°F16.1°C 23.9°F-4.5°C 24% 1.2 mph SE1.9 kmh SE 2.3 mph3.7 kmh 26.57 in899.8 mb - 0.00 in0.0 mm 0.00 in0.0 mm
02:50 PM 61.4°F16.3°C 25.3°F-3.7°C 25% 2.3 mph ESE3.7 kmh ESE 6.9 mph11.1 kmh 26.57 in899.8 mb - 0.00 in0.0 mm 0.00 in0.0 mm
02:55 PM 62.0°F16.7°C 27.6°F-2.4°C 27% 3.5 mph ESE5.6 kmh ESE 6.9 mph11.1 kmh 26.57 in899.8 mb - 0.00 in0.0 mm 0.00 in0.0 mm
03:00 PM 61.0°F16.1°C 21.8°F-5.7°C 22% 5.8 mph SW9.3 kmh SW 8.1 mph13.0 kmh 26.57 in899.8 mb - 0.00 in0.0 mm 0.00 in0.0 mm
03:10 PM 62.0°F16.7°C 25.7°F-3.5°C 25% 1.2 mph SE1.9 kmh SE 1.2 mph1.9 kmh 26.57 in899.8 mb - 0.00 in0.0 mm 0.00 in0.0 mm
03:15 PM 62.0°F16.7°C 25.7°F-3.5°C 25% 1.2 mph SE1.9 kmh SE 1.2 mph1.9 kmh 26.57 in899.8 mb - 0.00 in0.0 mm 0.00 in0.0 mm
03:20 PM 61.0°F16.1°C 26.7°F-2.9°C 27% 1.2 mph WSW1.9 kmh WSW 3.5 mph5.6 kmh 26.57 in899.8 mb - 0.00 in0.0 mm 0.00 in0.0 mm
03:25 PM 62.0°F16.7°C 22.7°F-5.2°C 22% 3.5 mph SW5.6 kmh SW 3.5 mph5.6 kmh 26.56 in899.4 mb - 0.00 in0.0 mm 0.00 in0.0 mm
03:30 PM 61.0°F16.1°C 23.9°F-4.5°C 24% 3.5 mph SW5.6 kmh SW 3.5 mph5.6 kmh 26.56 in899.4 mb - 0.00 in0.0 mm 0.00 in0.0 mm
03:35 PM 60.4°F15.8°C 22.4°F-5.3°C 23% 2.3 mph S3.7 kmh S 3.5 mph5.6 kmh 26.57 in899.8 mb - 0.00 in0.0 mm 0.00 in0.0 mm
03:40 PM 60.0°F15.6°C 22.0°F-5.6°C 23% 1.2 mph ESE1.9 kmh ESE 1.2 mph1.9 kmh 26.57 in899.8 mb - 0.00 in0.0 mm 0.00 in0.0 mm
03:45 PM 60.0°F15.6°C 23.1°F-4.9°C 24% 2.3 mph SE3.7 kmh SE 2.3 mph3.7 kmh 26.57 in899.8 mb - 0.00 in0.0 mm 0.00 in0.0 mm
03:50 PM 61.0°F16.1°C 24.9°F-3.9°C 25% 2.3 mph ENE3.7 kmh ENE 3.5 mph5.6 kmh 26.57 in899.8 mb - 0.00 in0.0 mm 0.00 in0.0 mm
03:55 PM 60.0°F15.6°C 21.0°F-6.1°C 22% 2.3 mph S3.7 kmh S 2.3 mph3.7 kmh 26.56 in899.4 mb - 0.00 in0.0 mm 0.00 in0.0 mm
04:00 PM 60.1°F15.6°C 21.1°F-6.1°C 22% 2.3 mph S3.7 kmh S 3.5 mph5.6 kmh 26.56 in899.4 mb - 0.00 in0.0 mm 0.00 in0.0 mm
04:10 PM 60.0°F15.6°C 24.0°F-4.4°C 25% 2.3 mph SW3.7 kmh SW 3.5 mph5.6 kmh 26.56 in899.4 mb - 0.00 in0.0 mm 0.00 in0.0 mm
04:15 PM 60.0°F15.6°C 24.0°F-4.4°C 25% 2.3 mph E3.7 kmh E 2.3 mph3.7 kmh 26.56 in899.4 mb - 0.00 in0.0 mm 0.00 in0.0 mm
04:20 PM 60.0°F15.6°C 22.0°F-5.6°C 23% 1.2 mph S1.9 kmh S 1.2 mph1.9 kmh 26.56 in899.4 mb - 0.00 in0.0 mm 0.00 in0.0 mm
04:25 PM 60.2°F15.7°C 22.2°F-5.4°C 23% 1.2 mph S1.9 kmh S 3.5 mph5.6 kmh 26.56 in899.4 mb - 0.00 in0.0 mm 0.00 in0.0 mm
04:30 PM 61.0°F16.1°C 23.9°F-4.5°C 24% 3.5 mph S5.6 kmh S 3.5 mph5.6 kmh 26.56 in899.4 mb - 0.00 in0.0 mm 0.00 in0.0 mm
04:35 PM 59.0°F15.0°C 23.2°F-4.9°C 25% 1.2 mph ESE1.9 kmh ESE 2.3 mph3.7 kmh 26.56 in899.4 mb - 0.00 in0.0 mm 0.00 in0.0 mm
04:40 PM 60.0°F15.6°C 23.1°F-4.9°C 24% 2.3 mph S3.7 kmh S 3.5 mph5.6 kmh 26.56 in899.4 mb - 0.00 in0.0 mm 0.00 in0.0 mm
04:45 PM 59.0°F15.0°C 24.1°F-4.4°C 26% 1.2 mph SE1.9 kmh SE 2.3 mph3.7 kmh 26.56 in899.4 mb - 0.00 in0.0 mm 0.00 in0.0 mm
04:50 PM 59.0°F15.0°C 24.1°F-4.4°C 26% 1.2 mph SE1.9 kmh SE 2.3 mph3.7 kmh 26.56 in899.4 mb - 0.00 in0.0 mm 0.00 in0.0 mm
04:55 PM 59.0°F15.0°C 24.1°F-4.4°C 26% 1.2 mph SE1.9 kmh SE 1.2 mph1.9 kmh 26.55 in899.1 mb - 0.00 in0.0 mm 0.00 in0.0 mm
05:00 PM 59.0°F15.0°C 23.2°F-4.9°C 25% 2.3 mph SSE3.7 kmh SSE 3.5 mph5.6 kmh 26.56 in899.4 mb - 0.00 in0.0 mm 0.00 in0.0 mm
05:10 PM 57.9°F14.4°C 24.1°F-4.4°C 27% 1.2 mph E1.9 kmh E 3.5 mph5.6 kmh 26.57 in899.8 mb - 0.00 in0.0 mm 0.00 in0.0 mm
05:15 PM 58.0°F14.4°C 24.2°F-4.3°C 27% 1.2 mph E1.9 kmh E 2.3 mph3.7 kmh 26.57 in899.8 mb - 0.00 in0.0 mm 0.00 in0.0 mm
05:20 PM 58.0°F14.4°C 24.2°F-4.3°C 27% 3.5 mph SE5.6 kmh SE 5.8 mph9.3 kmh 26.56 in899.4 mb - 0.00 in0.0 mm 0.00 in0.0 mm
05:25 PM 56.0°F13.3°C 23.3°F-4.8°C 28% 2.3 mph E3.7 kmh E 2.3 mph3.7 kmh 26.57 in899.8 mb - 0.00 in0.0 mm 0.00 in0.0 mm
05:30 PM 56.0°F13.3°C 21.6°F-5.8°C 26% 3.5 mph SSW5.6 kmh SSW 3.5 mph5.6 kmh 26.57 in899.8 mb - 0.00 in0.0 mm 0.00 in0.0 mm
05:35 PM 56.0°F13.3°C 22.4°F-5.3°C 27% 1.2 mph SSE1.9 kmh SSE 3.5 mph5.6 kmh 26.57 in899.8 mb - 0.00 in0.0 mm 0.00 in0.0 mm
05:40 PM 56.0°F13.3°C 22.4°F-5.3°C 27% 1.2 mph ENE1.9 kmh ENE 2.3 mph3.7 kmh 26.57 in899.8 mb - 0.00 in0.0 mm 0.00 in0.0 mm
05:45 PM 55.0°F12.8°C 23.3°F-4.8°C 29% 1.2 mph SE1.9 kmh SE 1.2 mph1.9 kmh 26.57 in899.8 mb - 0.00 in0.0 mm 0.00 in0.0 mm
05:50 PM 54.0°F12.2°C 20.7°F-6.3°C 27% 1.2 mph SSE1.9 kmh SSE 1.2 mph1.9 kmh 26.57 in899.8 mb - 0.00 in0.0 mm 0.00 in0.0 mm
05:55 PM 54.0°F12.2°C 19.8°F-6.8°C 26% 2.3 mph S3.7 kmh S 3.5 mph5.6 kmh 26.57 in899.8 mb - 0.00 in0.0 mm 0.00 in0.0 mm
06:00 PM 52.0°F11.1°C 20.7°F-6.3°C 29% 2.3 mph W3.7 kmh W 3.5 mph5.6 kmh 26.58 in900.1 mb - 0.00 in0.0 mm 0.00 in0.0 mm
06:10 PM 51.0°F10.6°C 18.1°F-7.7°C 27% 3.5 mph WSW5.6 kmh WSW 6.9 mph11.1 kmh 26.59 in900.4 mb - 0.00 in0.0 mm 0.00 in0.0 mm
06:15 PM 50.0°F10.0°C 18.1°F-7.7°C 28% 3.5 mph SW5.6 kmh SW 5.8 mph9.3 kmh 26.59 in900.4 mb - 0.00 in0.0 mm 0.00 in0.0 mm
06:20 PM 50.0°F10.0°C 19.7°F-6.8°C 30% 1.2 mph SE1.9 kmh SE 2.3 mph3.7 kmh 26.59 in900.4 mb - 0.00 in0.0 mm 0.00 in0.0 mm
06:25 PM 50.0°F10.0°C 18.9°F-7.3°C 29% 1.2 mph E1.9 kmh E 1.2 mph1.9 kmh 26.59 in900.4 mb - 0.00 in0.0 mm 0.00 in0.0 mm
06:30 PM 49.2°F9.6°C 19.0°F-7.2°C 30% 2.3 mph E3.7 kmh E 3.5 mph5.6 kmh 26.60 in900.8 mb - 0.00 in0.0 mm 0.00 in0.0 mm
06:35 PM 49.0°F9.4°C 18.9°F-7.3°C 30% 3.5 mph E5.6 kmh E 3.5 mph5.6 kmh 26.60 in900.8 mb - 0.00 in0.0 mm 0.00 in0.0 mm
06:40 PM 48.0°F8.9°C 20.9°F-6.2°C 34% 1.2 mph SSE1.9 kmh SSE 2.3 mph3.7 kmh 26.60 in900.8 mb - 0.00 in0.0 mm 0.00 in0.0 mm
06:45 PM 48.0°F8.9°C 18.0°F-7.8°C 30% 2.3 mph S3.7 kmh S 2.3 mph3.7 kmh 26.61 in901.1 mb - 0.00 in0.0 mm 0.00 in0.0 mm
06:50 PM 48.0°F8.9°C 18.8°F-7.3°C 31% Calm Calm 1.2 mph1.9 kmh 26.60 in900.8 mb - 0.00 in0.0 mm 0.00 in0.0 mm
06:55 PM 47.0°F8.3°C 17.9°F-7.8°C 31% 3.5 mph ENE5.6 kmh ENE 8.1 mph13.0 kmh 26.61 in901.1 mb - 0.00 in0.0 mm 0.00 in0.0 mm
07:00 PM 47.0°F8.3°C 18.6°F-7.4°C 32% 2.3 mph ENE3.7 kmh ENE 8.1 mph13.0 kmh 26.61 in901.1 mb - 0.00 in0.0 mm 0.00 in0.0 mm
07:10 PM 47.0°F8.3°C 20.0°F-6.7°C 34% Calm Calm 1.2 mph1.9 kmh 26.62 in901.5 mb - 0.00 in0.0 mm 0.00 in0.0 mm
07:15 PM 47.0°F8.3°C 18.6°F-7.4°C 32% Calm Calm 1.2 mph1.9 kmh 26.61 in901.1 mb - 0.00 in0.0 mm 0.00 in0.0 mm
07:20 PM 46.0°F7.8°C 17.7°F-7.9°C 32% 1.2 mph E1.9 kmh E 1.2 mph1.9 kmh 26.61 in901.1 mb - 0.00 in0.0 mm 0.00 in0.0 mm
07:25 PM 46.0°F7.8°C 17.0°F-8.3°C 31% Calm Calm 1.2 mph1.9 kmh 26.62 in901.5 mb - 0.00 in0.0 mm 0.00 in0.0 mm
07:30 PM 46.0°F7.8°C 17.0°F-8.3°C 31% Calm Calm 1.2 mph1.9 kmh 26.62 in901.5 mb - 0.00 in0.0 mm 0.00 in0.0 mm
07:35 PM 46.0°F7.8°C 17.7°F-7.9°C 32% 1.2 mph SE1.9 kmh SE 1.2 mph1.9 kmh 26.62 in901.5 mb - 0.00 in0.0 mm 0.00 in0.0 mm
07:40 PM 46.0°F7.8°C 19.2°F-7.1°C 34% 1.2 mph SE1.9 kmh SE 3.5 mph5.6 kmh 26.61 in901.1 mb - 0.00 in0.0 mm 0.00 in0.0 mm
07:45 PM 46.0°F7.8°C 18.5°F-7.5°C 33% 1.2 mph SSW1.9 kmh SSW 2.3 mph3.7 kmh 26.62 in901.5 mb - 0.00 in0.0 mm 0.00 in0.0 mm
07:50 PM 45.0°F7.2°C 17.6°F-8.0°C 33% 2.3 mph SSW3.7 kmh SSW 3.5 mph5.6 kmh 26.62 in901.5 mb - 0.00 in0.0 mm 0.00 in0.0 mm
07:55 PM 45.0°F7.2°C 19.0°F-7.2°C 35% 1.2 mph E1.9 kmh E 3.5 mph5.6 kmh 26.61 in901.1 mb - 0.00 in0.0 mm 0.00 in0.0 mm
08:00 PM 45.0°F7.2°C 19.0°F-7.2°C 35% 1.2 mph E1.9 kmh E 2.3 mph3.7 kmh 26.61 in901.1 mb - 0.00 in0.0 mm 0.00 in0.0 mm
08:10 PM 44.0°F6.7°C 19.4°F-7.0°C 37% Calm Calm 1.2 mph1.9 kmh 26.62 in901.5 mb - 0.00 in0.0 mm 0.00 in0.0 mm
08:15 PM 44.0°F6.7°C 20.6°F-6.3°C 39% 3.5 mph S5.6 kmh S 3.5 mph5.6 kmh 26.62 in901.5 mb - 0.00 in0.0 mm 0.00 in0.0 mm
08:20 PM 44.0°F6.7°C 21.8°F-5.7°C 41% 1.2 mph SE1.9 kmh SE 1.2 mph1.9 kmh 26.62 in901.5 mb - 0.00 in0.0 mm 0.00 in0.0 mm
08:25 PM 43.1°F6.2°C 22.1°F-5.5°C 43% Calm Calm 1.2 mph1.9 kmh 26.63 in901.8 mb - 0.00 in0.0 mm 0.00 in0.0 mm
08:30 PM 43.0°F6.1°C 22.0°F-5.6°C 43% Calm Calm 2.3 mph3.7 kmh 26.63 in901.8 mb - 0.00 in0.0 mm 0.00 in0.0 mm
08:35 PM 43.0°F6.1°C 22.5°F-5.3°C 44% 1.2 mph SSE1.9 kmh SSE 2.3 mph3.7 kmh 26.63 in901.8 mb - 0.00 in0.0 mm 0.00 in0.0 mm
08:40 PM 43.0°F6.1°C 23.6°F-4.7°C 46% Calm Calm 1.2 mph1.9 kmh 26.62 in901.5 mb - 0.00 in0.0 mm 0.00 in0.0 mm
08:45 PM 43.0°F6.1°C 24.6°F-4.1°C 48% Calm Calm -- 26.62 in901.5 mb - 0.00 in0.0 mm 0.00 in0.0 mm
08:50 PM 42.0°F5.6°C 21.6°F-5.8°C 44% Calm Calm 1.2 mph1.9 kmh 26.63 in901.8 mb - 0.00 in0.0 mm 0.00 in0.0 mm
08:55 PM 43.0°F6.1°C 20.9°F-6.2°C 41% 3.5 mph SW5.6 kmh SW 3.5 mph5.6 kmh 26.62 in901.5 mb - 0.00 in0.0 mm 0.00 in0.0 mm
09:00 PM 43.0°F6.1°C 20.9°F-6.2°C 41% 2.3 mph SSW3.7 kmh SSW 3.5 mph5.6 kmh 26.62 in901.5 mb - 0.00 in0.0 mm 0.00 in0.0 mm
09:10 PM 43.0°F6.1°C 22.5°F-5.3°C 44% Calm Calm -- 26.63 in901.8 mb - 0.00 in0.0 mm 0.00 in0.0 mm
09:15 PM 43.0°F6.1°C 20.9°F-6.2°C 41% 1.2 mph NW1.9 kmh NW 2.3 mph3.7 kmh 26.63 in901.8 mb - 0.00 in0.0 mm 0.00 in0.0 mm
09:20 PM 43.0°F6.1°C 21.4°F-5.9°C 42% Calm Calm -- 26.62 in901.5 mb - 0.00 in0.0 mm 0.00 in0.0 mm
09:25 PM 43.0°F6.1°C 21.4°F-5.9°C 42% Calm Calm -- 26.62 in901.5 mb - 0.00 in0.0 mm 0.00 in0.0 mm
09:30 PM 43.0°F6.1°C 20.3°F-6.5°C 40% 1.2 mph S1.9 kmh S 1.2 mph1.9 kmh 26.62 in901.5 mb - 0.00 in0.0 mm 0.00 in0.0 mm
09:35 PM 43.0°F6.1°C 20.3°F-6.5°C 40% 1.2 mph SSW1.9 kmh SSW 2.3 mph3.7 kmh 26.62 in901.5 mb - 0.00 in0.0 mm 0.00 in0.0 mm
09:40 PM 43.0°F6.1°C 20.9°F-6.2°C 41% 1.2 mph NNW1.9 kmh NNW 2.3 mph3.7 kmh 26.62 in901.5 mb - 0.00 in0.0 mm 0.00 in0.0 mm
09:45 PM 43.0°F6.1°C 22.0°F-5.6°C 43% 2.3 mph N3.7 kmh N 3.5 mph5.6 kmh 26.63 in901.8 mb - 0.00 in0.0 mm 0.00 in0.0 mm
09:50 PM 42.0°F5.6°C 25.6°F-3.6°C 52% 1.2 mph ESE1.9 kmh ESE 1.2 mph1.9 kmh 26.63 in901.8 mb - 0.00 in0.0 mm 0.00 in0.0 mm
09:55 PM 41.0°F5.0°C 24.7°F-4.1°C 52% 2.3 mph W3.7 kmh W 3.5 mph5.6 kmh 26.63 in901.8 mb - 0.00 in0.0 mm 0.00 in0.0 mm
10:00 PM 41.0°F5.0°C 25.2°F-3.8°C 53% 1.2 mph NE1.9 kmh NE 1.2 mph1.9 kmh 26.63 in901.8 mb - 0.00 in0.0 mm 0.00 in0.0 mm
10:10 PM 41.0°F5.0°C 24.7°F-4.1°C 52% Calm Calm -- 26.64 in902.1 mb - 0.00 in0.0 mm 0.00 in0.0 mm
10:15 PM 41.0°F5.0°C 23.8°F-4.6°C 50% 1.2 mph ENE1.9 kmh ENE 1.2 mph1.9 kmh 26.63 in901.8 mb - 0.00 in0.0 mm 0.00 in0.0 mm
10:20 PM 41.0°F5.0°C 21.3°F-5.9°C 45% Calm Calm 1.2 mph1.9 kmh 26.63 in901.8 mb - 0.00 in0.0 mm 0.00 in0.0 mm
10:25 PM 42.0°F5.6°C 21.1°F-6.1°C 43% 1.2 mph SSE1.9 kmh SSE 2.3 mph3.7 kmh 26.63 in901.8 mb - 0.00 in0.0 mm 0.00 in0.0 mm
10:30 PM 42.0°F5.6°C 20.5°F-6.4°C 42% Calm Calm 1.2 mph1.9 kmh 26.63 in901.8 mb - 0.00 in0.0 mm 0.00 in0.0 mm
10:35 PM 41.1°F5.1°C 21.4°F-5.9°C 45% Calm Calm 1.2 mph1.9 kmh 26.63 in901.8 mb - 0.00 in0.0 mm 0.00 in0.0 mm
10:40 PM 41.0°F5.0°C 21.3°F-5.9°C 45% Calm Calm 1.2 mph1.9 kmh 26.63 in901.8 mb - 0.00 in0.0 mm 0.00 in0.0 mm
10:45 PM 41.0°F5.0°C 20.7°F-6.3°C 44% Calm Calm -- 26.62 in901.5 mb - 0.00 in0.0 mm 0.00 in0.0 mm
10:50 PM 41.0°F5.0°C 20.2°F-6.6°C 43% Calm Calm 1.2 mph1.9 kmh 26.62 in901.5 mb - 0.00 in0.0 mm 0.00 in0.0 mm
10:55 PM 41.0°F5.0°C 22.8°F-5.1°C 48% Calm Calm -- 26.62 in901.5 mb - 0.00 in0.0 mm 0.00 in0.0 mm
11:00 PM 40.0°F4.4°C 22.8°F-5.1°C 50% Calm Calm -- 26.62 in901.5 mb - 0.00 in0.0 mm 0.00 in0.0 mm
11:10 PM 40.6°F4.8°C 20.4°F-6.4°C 44% 1.2 mph SSE1.9 kmh SSE 3.5 mph5.6 kmh 26.61 in901.1 mb - 0.00 in0.0 mm 0.00 in0.0 mm
11:15 PM 41.0°F5.0°C 20.7°F-6.3°C 44% Calm Calm -- 26.61 in901.1 mb - 0.00 in0.0 mm 0.00 in0.0 mm
11:20 PM 41.0°F5.0°C 20.7°F-6.3°C 44% Calm Calm -- 26.62 in901.5 mb - 0.00 in0.0 mm 0.00 in0.0 mm
11:25 PM 40.0°F4.4°C 22.4°F-5.3°C 49% 1.2 mph ESE1.9 kmh ESE 1.2 mph1.9 kmh 26.62 in901.5 mb - 0.00 in0.0 mm 0.00 in0.0 mm
11:30 PM 39.0°F3.9°C 22.8°F-5.1°C 52% Calm Calm -- 26.61 in901.1 mb - 0.00 in0.0 mm 0.00 in0.0 mm
11:35 PM 38.0°F3.3°C 24.5°F-4.2°C 58% Calm Calm 1.2 mph1.9 kmh 26.61 in901.1 mb - 0.00 in0.0 mm 0.00 in0.0 mm
11:40 PM 38.0°F3.3°C 21.5°F-5.8°C 51% Calm Calm 1.2 mph1.9 kmh 26.61 in901.1 mb - 0.00 in0.0 mm 0.00 in0.0 mm
11:45 PM 39.0°F3.9°C 21.9°F-5.6°C 50% Calm Calm -- 26.61 in901.1 mb - 0.00 in0.0 mm 0.00 in0.0 mm
11:50 PM 39.0°F3.9°C 22.8°F-5.1°C 52% Calm Calm 1.2 mph1.9 kmh 26.62 in901.5 mb - 0.00 in0.0 mm 0.00 in0.0 mm
11:55 PM 39.0°F3.9°C 22.4°F-5.3°C 51% 3.5 mph SSE5.6 kmh SSE 3.5 mph5.6 kmh 26.61 in901.1 mb - 0.00 in0.0 mm 0.00 in0.0 mm